首页
METAR-TAF:

METAR-TAF

机场 :

庫塔伊西國際機場

庫塔伊西, 格鲁吉亚

纬度: 42-10-35N, 经度: 042-28-57E, 海拔: 68米

当前天气观测

该预报发布于22分钟前的21:30 UTC
风速6节,风向多变
温度 16°C
湿度 42%
气压 1006 hPa
能见度10公里或以上
散云层高于5000英尺
多云层高于10000英尺

METAR: UGKO 282130Z VRB06KT 9999 SCT050 BKN100 16/03 Q1006 NOSIG

时间: 01:52 (21:52 UTC)

预报

该预报发布于4小时和52分钟前的17:00 UTC
预报有效从28日的 18点(UTC)到 29日的 18点(UTC)
风速15节,风向,有时为27节阵风
能见度10公里或以上
散云层高于5000英尺
多云层高于10000英尺
短暂存在
从 28日的 19点(UTC)到 28日的 23点(UTC)
风速25节,风向,有时为40节阵风
短暂存在
从 29日的 06点(UTC)到 29日的 09点(UTC)
风速5节,风向东转东南
成为
从 29日的 09点(UTC)到 29日的 12点(UTC)
风速10节,风向西转西南
散云层高于2600英尺
阴天层高于4500英尺
短暂存在
从 29日的 12点(UTC)到 29日的 18点(UTC)
风速16节,风向西转西南,有时为27节阵风
能見度: 2000
多云层高于1700英尺, 积雨云.
阵雨

TAF: UGKO 281700Z 2818/2918 08015G27KT 9999 SCT050 BKN100 TX18/2909Z TN13/2818Z TEMPO 2819/2823 08025G40KT TEMPO 2906/2909 12005KT BECMG 2909/2912 25010KT SCT026 OVC045 TEMPO 2912/2918 25016G27KT 2000 SHRA BKN017CB

超过4000个机场的气象观测和天气预报(METAR&TAF报告)。

可查询的气象台以黄色和红色小点在地图上表示。

将鼠标移到小点上方,可查看气象台名称。

然后点击查看天气观测和预报。

如需切换地图:点击带黑十字的绿色按钮放大地图;点击带横线的绿色按钮缩小地图;或者点击绿色箭头查看邻近地区的地图。


METAR-TAF: